Time;durP1;ratioP1;P1;durP2;ratioP2;P2;SDS_P1;SDS_P2;PMS_P1;PMS_P2;Temp;Humidity;BMP_temperature;BMP_pressure;BME280_temperature;BME280_humidity;BME280_pressure;Samples;Min_cycle;Max_cycle;Signal;HPM_P1;HPM_P2
2021/12/08 00:01:24;;;;;;;129.13;118.97;;;;;;;1.27;100.00;100095.00;5002418;28;20117;-78
2021/12/08 00:03:52;;;;;;;133.00;122.75;;;;;;;1.23;100.00;100096.28;5002352;28;20125;-78
2021/12/08 00:06:19;;;;;;;113.00;104.20;;;;;;;1.34;100.00;100113.50;5003115;28;20050;-78
2021/12/08 00:08:59;;;;;;;106.70;98.18;;;;;;;1.36;100.00;100117.59;5003347;28;20050;-78
2021/12/08 00:14:12;;;;;;;130.68;120.63;;;;;;;1.32;100.00;100131.97;4999227;28;20462;-80
2021/12/08 00:16:38;;;;;;;122.50;113.18;;;;;;;1.22;100.00;100123.44;4995731;28;20058;-79
2021/12/08 00:19:05;;;;;;;129.55;119.68;;;;;;;1.23;100.00;100117.22;5003194;28;20454;-81
2021/12/08 00:21:32;;;;;;;125.90;116.70;;;;;;;1.07;100.00;100112.78;4998694;28;20057;-78
2021/12/08 00:23:59;;;;;;;123.07;114.18;;;;;;;1.05;100.00;100119.94;5003509;28;20057;-78
2021/12/08 00:26:25;;;;;;;119.47;110.82;;;;;;;1.13;100.00;100125.22;4994239;28;20388;-83
2021/12/08 00:28:52;;;;;;;232.32;155.90;;;;;;;1.26;100.00;100127.38;4998623;28;20109;-79
2021/12/08 00:31:20;;;;;;;125.93;116.05;;;;;;;1.42;100.00;100125.75;4995833;28;20526;-79
2021/12/08 00:33:47;;;;;;;122.90;113.78;;;;;;;1.36;100.00;100130.69;5003411;28;20050;-80
2021/12/08 00:36:16;;;;;;;125.63;115.72;;;;;;;1.37;100.00;100126.25;5003232;28;20049;-78
2021/12/08 00:38:43;;;;;;;133.88;123.03;;;;;;;1.37;100.00;100134.13;5002703;28;20052;-78
2021/12/08 00:41:10;;;;;;;115.50;105.53;;;;;;;1.29;100.00;100137.50;4990610;28;20050;-78
2021/12/08 00:43:37;;;;;;;111.40;101.95;;;;;;;1.22;100.00;100127.88;4997434;28;20388;-77
2021/12/08 00:46:04;;;;;;;124.25;113.80;;;;;;;1.19;100.00;100131.59;5003116;28;20058;-81
2021/12/08 00:48:32;;;;;;;123.57;113.18;;;;;;;1.14;100.00;100126.03;5002871;28;20108;-81
2021/12/08 00:50:58;;;;;;;137.48;126.70;;;;;;;1.11;100.00;100129.78;5001864;28;20185;-80
2021/12/08 00:53:25;;;;;;;134.43;123.97;;;;;;;1.22;100.00;100135.72;4989824;28;20050;-78
2021/12/08 00:55:52;;;;;;;148.45;136.38;;;;;;;1.21;100.00;100137.50;5004693;28;20065;-79
2021/12/08 00:58:19;;;;;;;143.85;131.50;;;;;;;1.23;100.00;100130.31;5001974;28;20053;-80
2021/12/08 01:00:50;;;;;;;135.90;124.35;;;;;;;1.26;100.00;100131.78;5006559;28;20053;-78
2021/12/08 01:03:17;;;;;;;140.07;128.50;;;;;;;1.12;100.00;100136.66;5000637;28;20054;-79
2021/12/08 01:05:54;;;;;;;115.88;105.10;;;;;;;1.08;100.00;100140.56;4998697;28;20054;-79
2021/12/08 01:08:23;;;;;;;128.07;116.68;;;;;;;1.14;100.00;100146.94;5000614;28;20526;-82
2021/12/08 01:10:52;;;;;;;153.07;137.70;;;;;;;1.14;100.00;100142.53;5005077;28;20054;-80
2021/12/08 01:13:19;;;;;;;147.13;133.07;;;;;;;1.17;100.00;100146.63;4999443;28;20046;-77
2021/12/08 01:15:50;;;;;;;137.98;126.38;;;;;;;1.19;100.00;100142.06;5002688;28;20111;-79
2021/12/08 01:18:18;;;;;;;281.20;189.45;;;;;;;1.22;100.00;100148.78;4994126;28;20376;-80
2021/12/08 01:20:47;;;;;;;343.13;202.25;;;;;;;1.22;100.00;100149.59;5005662;28;20050;-79
2021/12/08 01:23:14;;;;;;;135.60;123.82;;;;;;;1.18;100.00;100153.53;5004893;28;20127;-78
2021/12/08 01:25:41;;;;;;;118.30;107.82;;;;;;;1.14;100.00;100152.19;5002026;28;20453;-80
2021/12/08 01:28:08;;;;;;;121.30;110.28;;;;;;;1.18;100.00;100147.44;5002054;28;20474;-81
2021/12/08 01:30:35;;;;;;;122.95;112.35;;;;;;;1.03;100.00;100137.63;4999494;28;20494;-79
2021/12/08 01:33:03;;;;;;;133.25;122.63;;;;;;;0.98;100.00;100134.66;5004566;28;20057;-78
2021/12/08 01:35:30;;;;;;;129.57;119.28;;;;;;;0.88;100.00;100128.72;5005367;28;20050;-77
2021/12/08 01:37:58;;;;;;;133.15;122.55;;;;;;;0.82;100.00;100134.59;5005967;28;20446;-79
2021/12/08 01:40:25;;;;;;;126.78;116.68;;;;;;;0.95;100.00;100131.53;4996143;28;20430;-82
2021/12/08 01:42:56;;;;;;;126.85;117.00;;;;;;;0.93;100.00;100139.53;5000151;28;20423;-80
2021/12/08 01:48:18;;;;;;;120.63;111.75;;;;;;;0.80;100.00;100136.53;5004214;28;20143;-80
2021/12/08 01:50:47;;;;;;;117.70;108.97;;;;;;;0.93;100.00;100143.94;4999187;28;20499;-79
2021/12/08 01:53:16;;;;;;;114.55;105.85;;;;;;;0.75;100.00;100142.22;5004139;28;20124;-78
2021/12/08 01:55:43;;;;;;;124.93;115.82;;;;;;;0.71;100.00;100146.13;5001544;28;20054;-80
2021/12/08 01:58:11;;;;;;;118.80;110.03;;;;;;;0.65;100.00;100144.94;4999832;28;20498;-78
2021/12/08 02:00:42;;;;;;;124.78;115.50;;;;;;;0.74;100.00;100145.00;5001165;28;20061;-77
2021/12/08 02:03:10;;;;;;;108.13;99.70;;;;;;;0.85;100.00;100153.38;5003145;28;20495;-80
2021/12/08 02:05:38;;;;;;;102.78;94.53;;;;;;;0.83;100.00;100152.72;5003469;28;20050;-78
2021/12/08 02:08:06;;;;;;;108.55;99.95;;;;;;;0.89;100.00;100153.91;5004934;28;20478;-80
2021/12/08 02:10:37;;;;;;;122.85;113.38;;;;;;;0.86;100.00;100154.22;4998623;28;20057;-79
2021/12/08 02:13:04;;;;;;;114.20;105.90;;;;;;;0.68;100.00;100149.88;5001191;28;20049;-80
2021/12/08 02:15:31;;;;;;;125.85;116.55;;;;;;;0.80;100.00;100155.66;5004009;28;20050;-80
2021/12/08 02:17:58;;;;;;;121.57;112.38;;;;;;;0.78;100.00;100162.81;5002994;28;20050;-78
2021/12/08 02:20:29;;;;;;;133.85;123.85;;;;;;;0.69;100.00;100148.88;5001892;28;20050;-77
2021/12/08 02:22:57;;;;;;;128.95;119.47;;;;;;;0.72;100.00;100158.22;5005144;28;20107;-79
2021/12/08 02:25:26;;;;;;;136.25;126.18;;;;;;;0.62;100.00;100157.50;5002957;28;20049;-81
2021/12/08 02:27:54;;;;;;;136.55;126.22;;;;;;;0.70;100.00;100162.78;5003749;28;20051;-78
2021/12/08 02:30:28;;;;;;;130.43;120.57;;;;;;;0.61;100.00;100163.72;5000901;28;20054;-80
2021/12/08 02:46:46;;;;;;;122.50;112.97;;;;;;;0.63;100.00;100166.97;4996719;28;20438;-82
2021/12/08 02:49:14;;;;;;;129.30;119.15;;;;;;;0.69;100.00;100172.41;5000309;28;20042;-80
2021/12/08 02:51:42;;;;;;;124.20;114.50;;;;;;;0.59;100.00;100171.72;4995424;28;20058;-80
2021/12/08 02:54:11;;;;;;;123.20;113.45;;;;;;;0.69;100.00;100175.03;5002607;28;20475;-79
2021/12/08 02:56:38;;;;;;;101.70;92.72;;;;;;;0.57;100.00;100178.88;5006884;28;20046;-78
2021/12/08 02:59:05;;;;;;;130.85;120.97;;;;;;;0.68;100.00;100181.22;5003845;28;20046;-78
2021/12/08 03:01:33;;;;;;;123.22;114.13;;;;;;;0.67;100.00;100186.63;5089651;23;22281;-83
2021/12/08 03:04:00;;;;;;;125.60;116.00;;;;;;;0.52;100.00;100188.16;4972804;28;20054;-79
2021/12/08 03:06:27;;;;;;;123.63;114.13;;;;;;;0.54;100.00;100184.41;4973267;28;20051;-78
2021/12/08 03:08:54;;;;;;;123.15;113.72;;;;;;;0.64;100.00;100184.31;4973273;28;21732;-78
2021/12/08 03:11:22;;;;;;;121.70;111.80;;;;;;;0.67;100.00;100184.84;4974333;28;20482;-78
2021/12/08 03:14:01;;;;;;;123.28;113.60;;;;;;;0.61;100.00;100190.69;4973383;28;20051;-80
2021/12/08 03:16:28;;;;;;;112.78;103.97;;;;;;;0.45;100.00;100194.00;4972873;28;20117;-78
2021/12/08 03:18:55;;;;;;;109.78;101.45;;;;;;;0.50;100.00;100188.31;4973222;28;20113;-79
2021/12/08 03:21:28;;;;;;;103.25;94.80;;;;;;;0.62;100.00;100186.25;4973390;28;20043;-81
2021/12/08 03:24:06;;;;;;;97.32;89.10;;;;;;;0.66;100.00;100185.78;4973569;28;20046;-80
2021/12/08 03:26:43;;;;;;;91.72;83.93;;;;;;;0.51;100.00;100183.91;4967250;28;20055;-80
2021/12/08 03:29:20;;;;;;;97.63;89.38;;;;;;;0.42;100.00;100194.31;4973286;28;20138;-78
2021/12/08 03:31:49;;;;;;;115.32;106.40;;;;;;;0.53;100.00;100197.63;4970276;28;20090;-78
2021/12/08 03:34:19;;;;;;;119.78;109.68;;;;;;;0.54;100.00;100200.09;4973189;28;20117;-80
2021/12/08 03:36:45;;;;;;;110.22;101.40;;;;;;;0.37;100.00;100201.78;4973228;28;20061;-80
2021/12/08 03:39:12;;;;;;;112.78;104.05;;;;;;;0.46;100.00;100207.91;4973368;28;20058;-80
2021/12/08 03:41:42;;;;;;;117.10;108.28;;;;;;;0.47;100.00;100204.28;4973086;28;20047;-82
2021/12/08 03:44:09;;;;;;;110.93;102.50;;;;;;;0.61;100.00;100208.16;4972781;28;20102;-80
2021/12/08 03:46:40;;;;;;;118.28;109.32;;;;;;;0.66;100.00;100200.66;4972743;28;20054;-80
2021/12/08 03:49:10;;;;;;;116.67;107.97;;;;;;;0.58;100.00;100200.63;4973179;28;20053;-79
2021/12/08 03:51:37;;;;;;;123.63;114.32;;;;;;;0.65;100.00;100214.72;4972998;28;20070;-82
2021/12/08 03:54:04;;;;;;;135.75;125.68;;;;;;;0.65;100.00;100206.88;4972496;28;20134;-78
2021/12/08 03:56:31;;;;;;;100.18;91.68;;;;;;;0.75;100.00;100218.03;4973711;28;20047;-84
2021/12/08 03:58:59;;;;;;;95.45;86.82;;;;;;;0.81;100.00;100211.38;4972346;28;20471;-80
2021/12/08 04:01:26;;;;;;;105.97;97.10;;;;;;;0.67;100.00;100218.81;4972405;28;20129;-80
2021/12/08 04:03:53;;;;;;;117.15;107.88;;;;;;;0.68;100.00;100223.06;4972470;28;20051;-80
2021/12/08 04:06:30;;;;;;;133.02;122.63;;;;;;;0.70;100.00;100230.75;4972825;28;20050;-78
2021/12/08 04:08:57;;;;;;;135.07;124.30;;;;;;;0.59;100.00;100223.97;4972522;28;20051;-79
2021/12/08 04:11:25;;;;;;;125.43;115.38;;;;;;;0.53;100.00;100232.44;4973172;28;20525;-80
2021/12/08 04:14:09;;;;;;;134.52;124.18;;;;;;;0.43;100.00;100231.72;4972291;28;20470;-80
2021/12/08 04:16:39;;;;;;;125.65;115.65;;;;;;;0.44;100.00;100246.41;4972596;28;20124;-83
2021/12/08 04:19:08;;;;;;;119.95;110.35;;;;;;;0.57;100.00;100249.44;4972306;28;20050;-78
2021/12/08 04:21:36;;;;;;;131.40;121.28;;;;;;;0.47;100.00;100243.50;4972085;28;20456;-79
2021/12/08 04:24:03;;;;;;;128.85;119.05;;;;;;;0.44;100.00;100244.63;4972548;28;20058;-80
2021/12/08 04:26:33;;;;;;;123.93;114.28;;;;;;;0.50;100.00;100251.03;4973447;28;20050;-80
2021/12/08 04:29:01;;;;;;;123.97;114.53;;;;;;;0.53;100.00;100249.91;4972015;28;20105;-80
2021/12/08 04:31:31;;;;;;;127.03;116.97;;;;;;;0.63;100.00;100250.63;4971886;28;20062;-80
2021/12/08 04:34:02;;;;;;;118.50;109.30;;;;;;;0.63;100.00;100259.28;4972227;28;20051;-80
2021/12/08 04:36:38;;;;;;;122.07;112.88;;;;;;;0.58;100.00;100258.94;4972039;28;20145;-78
2021/12/08 04:39:09;;;;;;;141.20;130.63;;;;;;;0.53;100.00;100268.19;4972157;28;20058;-79
2021/12/08 04:41:41;;;;;;;132.23;122.53;;;;;;;0.64;100.00;100268.78;4972994;28;20066;-81
2021/12/08 04:44:22;;;;;;;134.70;124.90;;;;;;;0.61;100.00;100270.88;4972091;28;20066;-78
2021/12/08 04:52:55;;;;;;;136.23;126.38;;;;;;;0.50;100.00;100278.97;4902762;29;20385;-78
2021/12/08 05:04:06;;;;;;;109.63;101.13;;;;;;;0.51;100.00;100284.03;4968916;28;20058;-78
2021/12/08 05:06:44;;;;;;;112.25;103.78;;;;;;;0.56;100.00;100286.19;4972511;28;20141;-80
2021/12/08 05:09:15;;;;;;;120.85;111.70;;;;;;;0.60;100.00;100288.34;4972821;28;20058;-78
2021/12/08 05:11:45;;;;;;;121.35;112.68;;;;;;;0.60;100.00;100284.91;4972409;28;20054;-81
2021/12/08 05:14:16;;;;;;;102.25;94.65;;;;;;;0.46;100.00;100286.28;4971404;28;20403;-81
2021/12/08 05:16:45;;;;;;;117.57;108.68;;;;;;;0.50;100.00;100292.84;4971797;28;20047;-81
2021/12/08 05:19:19;;;;;;;107.25;99.13;;;;;;;0.48;100.00;100292.16;4971632;28;20455;-78
2021/12/08 05:21:52;;;;;;;127.20;118.00;;;;;;;0.49;100.00;100293.00;4971689;28;20458;-79
2021/12/08 05:24:24;;;;;;;135.93;125.82;;;;;;;0.50;100.00;100292.03;4970009;28;20086;-78
2021/12/08 05:26:53;;;;;;;139.02;128.80;;;;;;;0.58;100.00;100297.31;4971841;28;20051;-78
2021/12/08 05:29:23;;;;;;;134.30;124.50;;;;;;;0.58;100.00;100305.97;4971409;28;20043;-80
2021/12/08 05:31:51;;;;;;;119.63;110.53;;;;;;;0.58;100.00;100302.56;4971474;28;20526;-78
2021/12/08 05:34:20;;;;;;;132.07;121.82;;;;;;;0.58;100.00;100313.00;4971641;28;20467;-80
2021/12/08 05:36:47;;;;;;;140.75;130.15;;;;;;;0.63;100.00;100306.34;4971560;28;20534;-78
2021/12/08 05:39:20;;;;;;;134.13;123.53;;;;;;;0.49;100.00;100309.50;4971720;28;20125;-78
2021/12/08 05:41:49;;;;;;;132.02;121.93;;;;;;;0.62;100.00;100309.94;4972608;28;20043;-79
2021/12/08 05:44:16;;;;;;;129.32;119.40;;;;;;;0.74;100.00;100314.94;4971196;28;20047;-83
2021/12/08 05:46:48;;;;;;;122.53;112.90;;;;;;;0.54;100.00;100315.06;4971633;28;20058;-78
2021/12/08 05:49:17;;;;;;;127.68;117.53;;;;;;;0.56;100.00;100321.00;4971323;28;20055;-80
2021/12/08 05:51:47;;;;;;;137.35;126.57;;;;;;;0.72;100.00;100325.53;4971594;28;20058;-80
2021/12/08 05:54:17;;;;;;;138.25;127.70;;;;;;;0.73;100.00;100323.72;4971222;28;20534;-79
2021/12/08 05:56:45;;;;;;;138.95;128.77;;;;;;;0.80;100.00;100328.19;4972289;28;20063;-79
2021/12/08 06:00:15;;;;;;;146.48;135.10;;;;;;;0.68;100.00;100337.25;5082522;27;20401;-80
2021/12/08 06:02:43;;;;;;;150.68;139.05;;;;;;;0.70;100.00;100345.78;5063880;28;20057;-81
2021/12/08 06:05:12;;;;;;;142.52;131.23;;;;;;;0.66;100.00;100337.41;5067826;28;20386;-81
2021/12/08 06:07:39;;;;;;;142.63;130.63;;;;;;;0.80;100.00;100330.00;5067991;28;20477;-81
2021/12/08 06:10:10;;;;;;;139.88;128.65;;;;;;;0.93;100.00;100343.50;5068080;28;20144;-81
2021/12/08 06:12:37;;;;;;;130.40;119.72;;;;;;;0.89;100.00;100350.81;5066910;28;20049;-81
2021/12/08 06:15:05;;;;;;;120.97;110.57;;;;;;;0.92;100.00;100352.31;5063379;28;20539;-79
2021/12/08 06:17:33;;;;;;;132.05;121.20;;;;;;;0.99;100.00;100358.56;5068481;28;20382;-81
2021/12/08 06:20:02;;;;;;;146.57;134.95;;;;;;;0.99;100.00;100353.34;5068511;28;20053;-81
2021/12/08 06:22:31;;;;;;;157.60;144.93;;;;;;;1.01;100.00;100354.03;5067848;28;20060;-79
2021/12/08 06:24:57;;;;;;;154.25;141.43;;;;;;;1.11;100.00;100361.75;5067551;28;20045;-80
2021/12/08 06:27:24;;;;;;;157.80;145.10;;;;;;;1.01;100.00;100356.63;5066620;28;20045;-81
2021/12/08 06:29:51;;;;;;;137.60;126.40;;;;;;;1.05;100.00;100359.75;5062767;28;20045;-81
2021/12/08 06:32:18;;;;;;;139.00;126.68;;;;;;;1.04;100.00;100358.13;5066725;28;20048;-81
2021/12/08 06:34:50;;;;;;;124.43;113.25;;;;;;;1.25;100.00;100366.44;5054350;28;20453;-81
2021/12/08 06:37:19;;;;;;;140.30;127.40;;;;;;;1.15;100.00;100368.34;5060397;28;20045;-81
2021/12/08 06:39:49;;;;;;;164.55;150.00;;;;;;;1.19;100.00;100372.28;5051365;28;20299;-81
2021/12/08 06:42:25;;;;;;;154.82;141.38;;;;;;;1.22;100.00;100374.59;5053479;28;20057;-79
2021/12/08 06:44:53;;;;;;;176.32;161.50;;;;;;;1.32;100.00;100383.16;5062541;28;20056;-82
2021/12/08 06:47:24;;;;;;;180.00;164.57;;;;;;;1.27;100.00;100380.22;5054105;28;20049;-80
2021/12/08 06:49:56;;;;;;;180.15;165.35;;;;;;;1.27;100.00;100384.59;5053823;28;20037;-81
2021/12/08 06:52:26;;;;;;;;;;;;;;;1.30;100.00;100385.13;5060228;28;20049;-81
2021/12/08 06:54:56;;;;;;;159.95;146.25;;;;;;;1.40;100.00;100394.69;5054157;28;20041;-81
2021/12/08 06:57:28;;;;;;;179.25;154.52;;;;;;;1.41;100.00;100404.16;5058975;28;20106;-79
2021/12/08 06:59:59;;;;;;;165.10;150.50;;;;;;;1.53;100.00;100392.47;5051269;28;20575;-81
2021/12/08 07:02:54;;;;;;;161.80;147.85;;;;;;;1.57;100.00;100406.88;5066042;28;20044;-81
2021/12/08 07:05:29;;;;;;;168.27;153.52;;;;;;;1.63;100.00;100405.44;5062118;28;20369;-80
2021/12/08 07:07:59;;;;;;;144.32;131.45;;;;;;;1.55;100.00;100406.22;5062801;28;20173;-81
2021/12/08 07:10:29;;;;;;;150.52;136.95;;;;;;;1.56;100.00;100405.22;5059298;28;20053;-80
2021/12/08 07:13:01;;;;;;;147.75;134.65;;;;;;;1.65;100.00;100416.56;5053190;28;20443;-80
2021/12/08 07:15:33;;;;;;;157.18;143.30;;;;;;;1.53;100.00;100416.84;5053100;28;20455;-79
2021/12/08 07:18:03;;;;;;;168.40;153.52;;;;;;;1.46;100.00;100412.38;5053427;28;20049;-79
2021/12/08 07:20:42;;;;;;;172.93;157.55;;;;;;;1.62;100.00;100403.81;5048139;28;20040;-79
2021/12/08 07:23:13;;;;;;;160.07;146.02;;;;;;;1.90;100.00;100401.81;5049876;28;20515;-81
2021/12/08 07:25:40;;;;;;;158.75;144.50;;;;;;;1.69;100.00;100408.25;5054444;28;20049;-81
2021/12/08 07:28:08;;;;;;;173.75;158.48;;;;;;;1.68;100.00;100411.84;5053081;28;20473;-81
2021/12/08 07:30:38;;;;;;;177.48;161.88;;;;;;;1.73;100.00;100417.44;5041122;28;20461;-79
2021/12/08 07:33:05;;;;;;;160.88;146.23;;;;;;;1.67;100.00;100418.06;5052955;28;20048;-81
2021/12/08 07:35:38;;;;;;;181.23;165.35;;;;;;;1.77;100.00;100420.56;5048026;28;20053;-79
2021/12/08 07:38:06;;;;;;;171.50;156.45;;;;;;;1.76;100.00;100422.38;5049023;28;20473;-79
2021/12/08 07:40:43;;;;;;;162.35;147.77;;;;;;;1.78;100.00;100427.44;5047427;28;20475;-80
2021/12/08 07:43:13;;;;;;;168.15;152.60;;;;;;;2.71;100.00;100425.63;5036854;28;20378;-81
2021/12/08 07:45:43;;;;;;;178.23;161.82;;;;;;;1.87;100.00;100430.94;5052862;28;20110;-79
2021/12/08 07:48:12;;;;;;;191.50;174.43;;;;;;;1.86;100.00;100432.72;5052971;28;20065;-81
2021/12/08 07:50:45;;;;;;;182.43;165.80;;;;;;;1.93;100.00;100425.88;5052827;28;20049;-81
2021/12/08 07:53:14;;;;;;;184.75;167.77;;;;;;;1.88;100.00;100429.97;5052742;28;20057;-81
2021/12/08 07:55:46;;;;;;;194.70;177.63;;;;;;;1.84;100.00;100438.09;5049334;28;20053;-78
2021/12/08 07:58:14;;;;;;;211.52;193.35;;;;;;;2.10;100.00;100439.06;5052194;28;20118;-78
2021/12/08 08:00:45;;;;;;;218.38;199.73;;;;;;;2.31;100.00;100439.47;5052269;28;20094;-80
2021/12/08 08:03:14;;;;;;;214.80;196.75;;;;;;;2.03;100.00;100447.56;5050127;28;20198;-80
2021/12/08 08:05:44;;;;;;;222.50;202.90;;;;;;;2.09;100.00;100458.38;5052594;28;20048;-78
2021/12/08 08:08:14;;;;;;;225.13;204.80;;;;;;;2.04;100.00;100454.44;5052643;28;20720;-79
2021/12/08 08:10:54;;;;;;;232.95;213.50;;;;;;;2.42;100.00;100456.69;5049287;28;20059;-80
2021/12/08 08:13:23;;;;;;;202.00;184.55;;;;;;;2.11;100.00;100459.03;5050828;28;20052;-79
2021/12/08 08:15:54;;;;;;;195.05;177.73;;;;;;;1.93;100.00;100453.88;5052104;28;20048;-80
2021/12/08 08:18:25;;;;;;;201.88;184.48;;;;;;;2.05;100.00;100456.06;5051965;28;20045;-79
2021/12/08 08:20:58;;;;;;;212.80;194.52;;;;;;;2.03;100.00;100449.34;5049141;28;20488;-82
2021/12/08 08:23:28;;;;;;;199.63;182.27;;;;;;;2.03;100.00;100459.84;5051392;28;20477;-79
2021/12/08 08:25:56;;;;;;;191.57;174.43;;;;;;;2.12;100.00;100460.66;5053035;28;20114;-81
2021/12/08 08:28:24;;;;;;;183.60;167.20;;;;;;;3.01;100.00;100457.47;5051142;28;20448;-81
2021/12/08 08:30:55;;;;;;;197.65;179.95;;;;;;;2.40;100.00;100456.06;5050994;28;20466;-80
2021/12/08 08:33:24;;;;;;;187.40;170.27;;;;;;;2.16;100.00;100459.41;5050550;28;20049;-79
2021/12/08 08:35:54;;;;;;;180.05;163.63;;;;;;;2.82;100.00;100466.47;5051753;28;20041;-79
2021/12/08 08:38:24;;;;;;;189.43;172.65;;;;;;;2.52;100.00;100466.06;5049731;28;20049;-79
2021/12/08 08:40:54;;;;;;;199.10;181.25;;;;;;;2.35;100.00;100460.94;5049474;28;20114;-79
2021/12/08 08:43:22;;;;;;;186.20;169.40;;;;;;;2.26;100.00;100453.03;5037514;28;20045;-81
2021/12/08 08:45:54;;;;;;;157.18;141.55;;;;;;;2.38;100.00;100452.75;5049722;28;20045;-81
2021/12/08 08:48:25;;;;;;;172.93;156.75;;;;;;;2.55;100.00;100441.34;5040692;28;20048;-81
2021/12/08 08:50:58;;;;;;;176.20;160.18;;;;;;;2.49;100.00;100453.28;5046787;28;20041;-81
2021/12/08 08:53:28;;;;;;;195.90;178.20;;;;;;;2.52;100.00;100441.66;5042064;28;20469;-79
2021/12/08 08:55:58;;;;;;;197.55;179.63;;;;;;;2.37;100.00;100445.88;5037385;28;20052;-81
2021/12/08 08:58:29;;;;;;;197.20;179.20;;;;;;;2.59;100.00;100441.84;5043461;28;20062;-79
2021/12/08 09:01:00;;;;;;;179.02;162.52;;;;;;;2.63;100.00;100438.75;5052558;28;20107;-81
2021/12/08 09:03:32;;;;;;;186.43;168.98;;;;;;;2.50;100.00;100435.75;5042150;28;20061;-81
2021/12/08 09:06:05;;;;;;;199.02;179.98;;;;;;;2.61;100.00;100438.09;5050956;28;20065;-79
2021/12/08 09:08:36;;;;;;;199.20;180.70;;;;;;;2.61;100.00;100440.69;5051211;28;20053;-80
2021/12/08 09:11:10;;;;;;;198.05;179.63;;;;;;;2.77;100.00;100429.41;5046298;28;20048;-79
2021/12/08 09:13:45;;;;;;;216.52;197.00;;;;;;;2.49;100.00;100432.31;5046905;28;20049;-80
2021/12/08 09:16:15;;;;;;;230.20;209.20;;;;;;;2.48;100.00;100433.31;5051228;28;20078;-79
2021/12/08 09:18:54;;;;;;;223.90;202.98;;;;;;;2.59;100.00;100431.34;5051021;28;20130;-79
2021/12/08 09:21:26;;;;;;;256.60;233.50;;;;;;;2.62;100.00;100425.78;5045819;28;20063;-80
2021/12/08 09:23:56;;;;;;;;;;;;;;;2.85;100.00;100420.75;5051727;28;20041;-81
2021/12/08 09:26:25;;;;;;;209.00;189.30;;;;;;;2.74;100.00;100420.06;5044443;28;19932;-79
2021/12/08 09:28:56;;;;;;;226.40;204.73;;;;;;;2.63;100.00;100422.16;5045624;28;20045;-80
2021/12/08 09:31:26;;;;;;;206.93;186.27;;;;;;;2.60;100.00;100417.25;5041423;28;20050;-79
2021/12/08 09:33:59;;;;;;;198.65;179.13;;;;;;;2.64;100.00;100408.91;5041312;28;20311;-81
2021/12/08 09:36:32;;;;;;;236.07;213.02;;;;;;;2.73;100.00;100407.94;5040158;28;20110;-79
2021/12/08 09:39:04;;;;;;;220.85;200.00;;;;;;;2.69;100.00;100413.66;5042046;28;20053;-81
2021/12/08 09:41:36;;;;;;;;;;;;;;;2.50;100.00;100412.16;5044351;28;20041;-82
2021/12/08 09:44:07;;;;;;;227.43;206.00;;;;;;;2.49;100.00;100415.78;5050573;28;19920;-81
2021/12/08 09:46:36;;;;;;;212.75;191.32;;;;;;;2.68;100.00;100417.28;5050661;28;20513;-79
2021/12/08 09:49:05;;;;;;;208.23;187.88;;;;;;;2.69;100.00;100421.53;5050480;28;20432;-80
2021/12/08 09:51:35;;;;;;;207.07;187.32;;;;;;;3.33;100.00;100417.28;5043150;28;20053;-78
2021/12/08 09:54:01;;;;;;;189.85;171.25;;;;;;;2.68;100.00;100420.72;5051507;28;20501;-79
2021/12/08 09:56:29;;;;;;;204.23;184.25;;;;;;;2.84;100.00;100417.28;5043601;28;20049;-80
2021/12/08 09:58:56;;;;;;;185.57;167.75;;;;;;;3.23;100.00;100421.88;5046462;28;20045;-80
2021/12/08 10:01:23;;;;;;;172.57;155.85;;;;;;;2.75;100.00;100416.47;5045777;28;20399;-81
2021/12/08 10:03:53;;;;;;;194.10;175.02;;;;;;;2.76;100.00;100414.66;5052261;28;20057;-81
2021/12/08 10:06:21;;;;;;;229.50;208.73;;;;;;;2.75;100.00;100416.47;5052234;28;20118;-81
2021/12/08 10:08:57;;;;;;;222.45;201.85;;;;;;;2.65;100.00;100413.16;5050191;28;20535;-81
2021/12/08 10:11:25;;;;;;;190.75;171.85;;;;;;;2.89;100.00;100412.38;5048153;28;20454;-80
2021/12/08 10:13:52;;;;;;;182.70;164.27;;;;;;;2.78;100.00;100414.50;5046131;28;20041;-81
2021/12/08 10:16:19;;;;;;;191.20;172.23;;;;;;;3.03;100.00;100412.72;5043317;28;20198;-81
2021/12/08 10:18:47;;;;;;;181.10;163.13;;;;;;;3.07;100.00;100420.09;5048661;28;20053;-81
2021/12/08 10:21:14;;;;;;;182.65;164.77;;;;;;;3.06;100.00;100413.22;5045769;28;20045;-79
2021/12/08 10:23:43;;;;;;;210.65;191.30;;;;;;;3.01;100.00;100414.69;5049906;28;20099;-81
2021/12/08 10:26:14;;;;;;;195.65;176.93;;;;;;;2.92;100.00;100416.47;5041130;28;20115;-81
2021/12/08 10:28:43;;;;;;;189.10;170.18;;;;;;;3.05;100.00;100418.59;5052161;28;20110;-80
2021/12/08 10:31:14;;;;;;;191.98;173.52;;;;;;;3.18;100.00;100416.31;5049828;28;20045;-81
2021/12/08 10:36:46;;;;;;;192.23;175.48;;;;;;;3.27;100.00;100423.22;5047251;28;20202;-80
2021/12/08 10:39:23;;;;;;;186.13;169.05;;;;;;;3.09;100.00;100418.13;5042609;28;20115;-81
2021/12/08 10:41:56;;;;;;;196.52;180.13;;;;;;;2.94;100.00;100427.63;5049008;28;20489;-80
2021/12/08 10:44:26;;;;;;;195.95;178.55;;;;;;;2.94;100.00;100420.59;5051685;28;20049;-80
2021/12/08 10:46:57;;;;;;;180.65;163.13;;;;;;;2.89;100.00;100416.81;5053934;28;20052;-79
2021/12/08 10:54:23;;;;;;;194.50;176.52;;;;;;;2.78;100.00;100420.56;5049704;28;20049;-81
2021/12/08 10:54:57;;;;;;;194.25;175.77;;;;;;;2.85;100.00;100424.19;5046030;28;20107;-79
2021/12/08 10:57:29;;;;;;;180.48;163.38;;;;;;;2.90;100.00;100421.88;5039172;28;20573;-81
2021/12/08 11:00:00;;;;;;;181.90;164.20;;;;;;;2.91;100.00;100425.34;5054729;28;20133;-80
2021/12/08 11:02:47;;;;;;;187.02;169.77;;;;;;;3.12;100.00;100423.06;5041048;28;20115;-79
2021/12/08 11:05:37;;;;;;;190.50;173.93;;;;;;;2.86;100.00;100420.56;5054125;28;20072;-81
2021/12/08 11:08:08;;;;;;;208.18;190.48;;;;;;;2.93;100.00;100424.16;5052161;28;20512;-79
2021/12/08 11:10:39;;;;;;;179.37;162.73;;;;;;;3.00;100.00;100413.88;5055271;28;20061;-81
2021/12/08 11:13:09;;;;;;;166.40;151.10;;;;;;;2.84;100.00;100408.59;5054961;28;20370;-79
2021/12/08 11:15:37;;;;;;;180.30;163.73;;;;;;;2.95;100.00;100414.34;5043992;28;20053;-81
2021/12/08 11:18:09;;;;;;;191.05;173.95;;;;;;;2.90;100.00;100411.38;5052740;28;20059;-80
2021/12/08 11:20:43;;;;;;;183.82;167.85;;;;;;;3.27;100.00;100412.72;5044611;28;20041;-81
2021/12/08 11:23:11;;;;;;;157.88;142.45;;;;;;;2.93;100.00;100412.88;5041006;28;20496;-80
2021/12/08 11:25:40;;;;;;;172.13;156.30;;;;;;;2.94;100.00;100411.91;5046831;28;20739;-81
2021/12/08 11:28:29;;;;;;;173.65;157.70;;;;;;;3.09;100.00;100412.88;5045758;28;20053;-80
2021/12/08 11:31:04;;;;;;;163.18;148.25;;;;;;;3.02;100.00;100414.50;5042859;28;20045;-79
2021/12/08 11:33:31;;;;;;;163.13;148.20;;;;;;;3.10;100.00;100411.88;5048328;28;20485;-81
2021/12/08 11:36:13;;;;;;;151.10;137.10;;;;;;;3.44;100.00;100416.94;5046633;28;20079;-80
2021/12/08 11:38:42;;;;;;;144.68;131.63;;;;;;;3.19;100.00;100421.41;5047515;28;20045;-80
2021/12/08 11:41:34;;;;;;;160.35;144.88;;;;;;;3.19;100.00;100421.41;5049845;28;20045;-80
2021/12/08 11:44:06;;;;;;;161.30;146.90;;;;;;;3.09;100.00;100426.00;5054293;28;20048;-81
2021/12/08 11:46:38;;;;;;;166.30;150.93;;;;;;;3.17;100.00;100419.91;5054370;28;20049;-81
2021/12/08 11:50:48;;;;;;;149.80;135.05;;;;;;;3.05;100.00;100424.66;5082899;27;20398;-83